createdAt,value
2022-09-12T00:01:37.313Z,101304.75
2022-09-12T00:04:06.323Z,101305.53
2022-09-12T00:06:36.715Z,101302.03
2022-09-12T00:09:08.114Z,101300.22
2022-09-12T00:11:37.915Z,101295.78
2022-09-12T00:14:09.652Z,101300.97
2022-09-12T00:16:38.783Z,101298.31
2022-09-12T00:19:08.150Z,101302.63
2022-09-12T00:21:38.551Z,101295.53
2022-09-12T00:24:12.412Z,101293.75
2022-09-12T00:26:41.143Z,101288.50
2022-09-12T00:29:12.544Z,101292.78
2022-09-12T00:31:41.603Z,101285.75
2022-09-12T00:34:10.816Z,101297.03
2022-09-12T00:36:40.720Z,101294.38
2022-09-12T00:39:09.238Z,101294.31
2022-09-12T00:41:40.688Z,101302.13
2022-09-12T00:44:42.279Z,101296.81
2022-09-12T00:47:18.891Z,101290.66
2022-09-12T00:49:50.816Z,101291.47
2022-09-12T00:52:25.470Z,101298.31
2022-09-12T00:54:58.648Z,101292.16
2022-09-12T00:57:32.358Z,101292.97
2022-09-12T01:00:05.843Z,101290.34
2022-09-12T01:02:36.837Z,101288.59
2022-09-12T01:05:07.770Z,101290.44
2022-09-12T01:07:40.014Z,101287.88
2022-09-12T01:10:10.896Z,101286.94
2022-09-12T01:12:42.307Z,101281.69
2022-09-12T01:15:11.628Z,101289.50
2022-09-12T01:17:55.482Z,101289.41
2022-09-12T01:21:05.198Z,101286.75
2022-09-12T01:24:13.613Z,101288.41
2022-09-12T01:27:04.515Z,101294.44
2022-09-12T01:30:07.388Z,101294.44
2022-09-12T01:32:54.599Z,101289.97
2022-09-12T01:35:29.271Z,101295.25
2022-09-12T01:38:08.530Z,101288.28
2022-09-12T01:40:45.883Z,101286.47
2022-09-12T01:43:25.191Z,101281.25
2022-09-12T01:46:01.191Z,101278.59
2022-09-12T01:48:35.869Z,101278.59
2022-09-12T01:51:12.408Z,101275.06
2022-09-12T01:53:45.424Z,101275.00
2022-09-12T01:56:22.474Z,101268.84
2022-09-12T01:58:54.363Z,101276.69
2022-09-12T02:01:29.703Z,101280.16
2022-09-12T02:04:09.053Z,101279.25
2022-09-12T02:06:43.136Z,101273.16
2022-09-12T02:09:16.440Z,101276.56
2022-09-12T02:11:47.586Z,101279.09
2022-09-12T02:14:22.563Z,101282.56
2022-09-12T02:16:55.796Z,101282.50
2022-09-12T02:19:31.033Z,101278.09
2022-09-12T02:22:01.345Z,101279.81
2022-09-12T02:24:32.898Z,101292.81
2022-09-12T02:27:06.366Z,101279.66
2022-09-12T02:29:34.863Z,101283.13
2022-09-12T02:32:08.180Z,101281.31
2022-09-12T02:34:49.457Z,101278.66
2022-09-12T02:37:27.260Z,101276.91
2022-09-12T02:39:57.725Z,101278.66
2022-09-12T02:42:27.136Z,101270.84
2022-09-12T02:44:58.328Z,101281.19
2022-09-12T02:47:31.119Z,101275.09
2022-09-12T02:50:01.691Z,101279.44
2022-09-12T02:52:30.788Z,101282.00
2022-09-12T02:55:00.311Z,101279.38
2022-09-12T02:57:28.849Z,101280.19
2022-09-12T03:00:00.455Z,101277.59
2022-09-12T03:02:36.801Z,101281.94
2022-09-12T03:05:20.020Z,101278.44
2022-09-12T03:08:10.587Z,101284.59
2022-09-12T03:10:47.387Z,101280.19
2022-09-12T03:13:24.648Z,101279.38
2022-09-12T03:16:05.270Z,101284.59
2022-09-12T03:18:50.571Z,101279.38
2022-09-12T03:21:27.290Z,101278.41
2022-09-12T03:24:08.750Z,101268.84
2022-09-12T03:26:42.240Z,101272.38
2022-09-12T03:29:13.003Z,101281.16
2022-09-12T03:31:50.327Z,101275.88
2022-09-12T03:34:19.088Z,101292.31
2022-09-12T03:36:49.392Z,101285.31
2022-09-12T03:39:18.338Z,101277.44
2022-09-12T03:41:47.088Z,101282.63
2022-09-12T03:44:16.156Z,101284.38
2022-09-12T03:46:44.854Z,101283.56
2022-09-12T03:49:13.810Z,101288.84
2022-09-12T03:51:43.069Z,101277.44
2022-09-12T03:54:13.426Z,101282.66
2022-09-12T03:56:42.412Z,101283.47
2022-09-12T03:59:10.923Z,101287.75
2022-09-12T04:01:40.831Z,101291.22
2022-09-12T04:04:10.205Z,101297.19
2022-09-12T04:06:38.697Z,101293.69
2022-09-12T04:09:07.234Z,101296.28
2022-09-12T04:11:37.255Z,101298.03
2022-09-12T04:14:05.765Z,101298.94
2022-09-12T04:16:34.327Z,101291.94
2022-09-12T04:19:03.104Z,101289.31
2022-09-12T04:21:32.126Z,101285.84
2022-09-12T04:24:00.618Z,101284.06
2022-09-12T04:26:30.014Z,101280.63
2022-09-12T04:28:59.951Z,101285.00
2022-09-12T04:31:28.507Z,101290.25
2022-09-12T04:33:58.114Z,101287.59
2022-09-12T04:36:27.928Z,101289.25
2022-09-12T04:38:57.378Z,101278.84
2022-09-12T04:41:27.724Z,101285.75
2022-09-12T04:44:01.681Z,101287.50
2022-09-12T04:46:32.059Z,101290.97
2022-09-12T04:49:00.647Z,101288.31
2022-09-12T04:51:31.600Z,101290.91
2022-09-12T04:54:02.186Z,101294.34
2022-09-12T04:56:31.519Z,101287.44
2022-09-12T04:59:02.398Z,101291.78
2022-09-12T05:01:31.384Z,101301.34
2022-09-12T05:04:00.962Z,101287.41
2022-09-12T05:06:31.413Z,101290.00
2022-09-12T05:09:01.888Z,101286.50
2022-09-12T05:11:59.754Z,101289.13
2022-09-12T05:14:22.572Z,101292.59
2022-09-12T05:16:51.146Z,101292.59
2022-09-12T05:19:19.715Z,101296.97
2022-09-12T05:21:48.217Z,101296.09
2022-09-12T05:24:16.983Z,101295.25
2022-09-12T05:26:45.491Z,101301.34
2022-09-12T05:29:14.275Z,101305.72
2022-09-12T05:31:44.260Z,101303.16
2022-09-12T05:34:12.803Z,101306.72
2022-09-12T05:36:41.528Z,101300.66
2022-09-12T05:39:10.096Z,101316.41
2022-09-12T05:41:39.175Z,101305.97
2022-09-12T05:44:12.237Z,101311.31
2022-09-12T05:46:42.772Z,101316.53
2022-09-12T05:49:14.684Z,101310.50
2022-09-12T05:51:45.377Z,101308.78
2022-09-12T05:54:18.213Z,101316.69
2022-09-12T05:56:47.538Z,101321.19
2022-09-12T05:59:19.440Z,101326.47
2022-09-12T06:01:48.582Z,101324.00
2022-09-12T06:04:18.797Z,101323.22
2022-09-12T06:06:47.570Z,101328.56
2022-09-12T06:09:17.775Z,101327.75
2022-09-12T06:11:47.627Z,101331.34
2022-09-12T06:14:18.312Z,101333.16
2022-09-12T06:16:47.433Z,101326.31
2022-09-12T06:19:18.868Z,101334.25
2022-09-12T06:21:49.464Z,101331.78
2022-09-12T06:24:18.930Z,101339.72
2022-09-12T06:26:48.039Z,101335.53
2022-09-12T06:29:17.275Z,101336.50
2022-09-12T06:31:46.668Z,101335.72
2022-09-12T06:34:17.010Z,101342.78
2022-09-12T06:36:49.070Z,101342.91
2022-09-12T06:39:18.960Z,101350.03
2022-09-12T06:41:48.418Z,101350.22
2022-09-12T06:44:18.678Z,101352.09
2022-09-12T06:46:47.511Z,101346.06
2022-09-12T06:49:17.628Z,101350.56
2022-09-12T06:51:47.637Z,101346.31
2022-09-12T06:54:16.914Z,101342.94
2022-09-12T06:56:46.015Z,101351.75
2022-09-12T06:59:14.578Z,101345.69
2022-09-12T07:01:43.282Z,101339.75
2022-09-12T07:04:12.365Z,101344.19
2022-09-12T07:06:44.610Z,101341.78
2022-09-12T07:09:17.271Z,101341.94
2022-09-12T07:11:47.440Z,101335.06
2022-09-12T07:14:16.916Z,101331.66
2022-09-12T07:16:45.702Z,101337.84
2022-09-12T07:19:14.771Z,101333.59
2022-09-12T07:21:43.423Z,101337.16
2022-09-12T07:24:12.327Z,101335.44
2022-09-12T07:26:44.121Z,101338.19
2022-09-12T07:32:06.780Z,101332.19
2022-09-12T07:34:35.839Z,101337.47
2022-09-12T07:37:04.706Z,101333.16
2022-09-12T07:39:33.647Z,101342.00
2022-09-12T07:42:03.531Z,101330.72
2022-09-12T07:44:32.036Z,101334.31
2022-09-12T07:47:00.834Z,101336.16
2022-09-12T07:49:30.547Z,101335.38
2022-09-12T07:51:59.281Z,101334.59
2022-09-12T07:54:27.818Z,101334.72
2022-09-12T07:56:56.744Z,101334.81
2022-09-12T07:59:48.916Z,101348.03
2022-09-12T08:02:17.400Z,101337.69
2022-09-12T08:04:48.082Z,101342.13
2022-09-12T08:07:18.531Z,101337.78
2022-09-12T08:09:47.458Z,101333.47
2022-09-12T08:12:16.569Z,101345.78
2022-09-12T08:14:46.539Z,101349.41
2022-09-12T08:17:15.472Z,101349.50
2022-09-12T08:19:44.930Z,101347.81
2022-09-12T08:22:13.784Z,101348.72
2022-09-12T08:24:42.320Z,101345.31
2022-09-12T08:27:10.830Z,101344.44
2022-09-12T08:29:39.412Z,101346.25
2022-09-12T08:32:09.655Z,101349.69
2022-09-12T08:34:38.141Z,101342.75
2022-09-12T08:37:06.887Z,101354.19
2022-09-12T08:39:35.489Z,101342.00
2022-09-12T08:42:06.184Z,101335.03
2022-09-12T08:44:57.476Z,101340.38
2022-09-12T08:47:31.579Z,101339.59
2022-09-12T08:50:15.434Z,101342.28
2022-09-12T08:52:51.951Z,101343.28
2022-09-12T08:55:31.277Z,101338.97
2022-09-12T08:58:01.530Z,101345.13
2022-09-12T09:00:45.788Z,101344.28
2022-09-12T09:03:47.747Z,101339.91
2022-09-12T09:06:29.460Z,101338.16
2022-09-12T09:09:06.687Z,101333.78
2022-09-12T09:11:45.939Z,101328.53
2022-09-12T09:14:49.840Z,101336.44
2022-09-12T09:17:25.285Z,101328.59
2022-09-12T09:20:03.039Z,101333.91
2022-09-12T09:22:39.408Z,101327.81
2022-09-12T09:25:12.456Z,101329.66
2022-09-12T09:27:47.825Z,101325.28
2022-09-12T09:30:18.651Z,101323.59
2022-09-12T09:32:51.144Z,101321.03
2022-09-12T09:35:34.420Z,101321.97
2022-09-12T09:38:16.197Z,101321.94
2022-09-12T09:40:49.923Z,101322.84
2022-09-12T09:43:23.844Z,101322.00
2022-09-12T09:45:54.483Z,101324.66
2022-09-12T09:48:27.070Z,101315.91
2022-09-12T09:51:00.104Z,101316.81
2022-09-12T09:53:39.915Z,101318.53
2022-09-12T09:56:12.839Z,101315.94
2022-09-12T09:58:42.285Z,101321.25
2022-09-12T10:01:17.138Z,101314.25
2022-09-12T10:03:52.662Z,101316.06
2022-09-12T10:06:31.156Z,101309.09
2022-09-12T10:09:09.170Z,101313.56
2022-09-12T10:11:43.697Z,101310.03
2022-09-12T10:14:35.165Z,101309.19
2022-09-12T10:17:22.763Z,101303.91
2022-09-12T10:20:10.522Z,101307.47
2022-09-12T10:22:41.443Z,101302.19
2022-09-12T10:25:17.193Z,101298.72
2022-09-12T10:27:45.934Z,101304.00
2022-09-12T10:30:19.807Z,101303.09
2022-09-12T10:32:51.689Z,101306.56
2022-09-12T10:35:24.213Z,101305.69
2022-09-12T10:37:57.926Z,101306.59
2022-09-12T10:40:28.440Z,101295.19
2022-09-12T10:42:58.426Z,101298.69
2022-09-12T10:45:30.391Z,101296.06
2022-09-12T10:48:05.410Z,101302.22
2022-09-12T10:50:41.311Z,101291.66
2022-09-12T10:53:21.582Z,101293.44
2022-09-12T10:56:06.110Z,101289.91
2022-09-12T10:59:00.735Z,101290.75
2022-09-12T11:01:41.454Z,101292.53
2022-09-12T11:04:27.706Z,101294.31
2022-09-12T11:07:21.067Z,101293.44
2022-09-12T11:09:58.635Z,101289.91
2022-09-12T11:12:37.929Z,101285.50
2022-09-12T11:15:24.747Z,101284.63
2022-09-12T11:18:02.002Z,101286.38
2022-09-12T11:20:43.562Z,101279.38
2022-09-12T11:23:33.479Z,101281.13
2022-09-12T11:26:11.357Z,101280.97
2022-09-12T11:28:50.322Z,101278.94
2022-09-12T11:31:54.074Z,101280.44
2022-09-12T11:34:35.065Z,101283.56
2022-09-12T11:37:21.159Z,101277.97
2022-09-12T11:39:55.629Z,101276.06
2022-09-12T11:42:34.269Z,101278.53
2022-09-12T11:45:11.588Z,101268.56
2022-09-12T11:47:41.360Z,101267.34
2022-09-12T11:50:21.676Z,101262.34
2022-09-12T11:52:53.085Z,101267.44
2022-09-12T11:55:27.330Z,101266.50
2022-09-12T11:57:59.095Z,101259.50
2022-09-12T12:00:33.991Z,101257.38
2022-09-12T12:03:10.318Z,101264.69
2022-09-12T12:05:47.574Z,101264.63
2022-09-12T12:08:16.600Z,101259.31
2022-09-12T12:10:50.028Z,101250.81
2022-09-12T12:13:25.305Z,101247.06
2022-09-12T12:15:58.475Z,101247.75
2022-09-12T12:18:28.773Z,101236.00
2022-09-12T12:21:17.191Z,101239.53
2022-09-12T12:24:04.824Z,101237.78
2022-09-12T12:26:56.859Z,101235.47
2022-09-12T12:29:45.269Z,101226.94
2022-09-12T12:32:25.051Z,101225.38
2022-09-12T12:35:05.055Z,101230.25
2022-09-12T12:37:52.442Z,101236.91
2022-09-12T12:40:27.916Z,101238.53
2022-09-12T12:43:05.125Z,101237.13
2022-09-12T12:46:07.355Z,101234.66
2022-09-12T12:48:52.837Z,101236.78
2022-09-12T12:51:38.034Z,101237.69
2022-09-12T12:54:28.656Z,101237.88
2022-09-12T12:57:17.684Z,101245.94
2022-09-12T12:59:53.135Z,101238.97
2022-09-12T13:02:30.271Z,101242.53
2022-09-12T13:05:19.572Z,101236.44
2022-09-12T13:07:54.386Z,101232.13
2022-09-12T13:10:28.868Z,101238.41
2022-09-12T13:13:02.054Z,101230.47
2022-09-12T13:15:49.449Z,101219.03
2022-09-12T13:18:27.990Z,101215.44
2022-09-12T13:21:09.091Z,101214.41
2022-09-12T13:23:37.861Z,101216.91
2022-09-12T13:26:13.011Z,101209.53
2022-09-12T13:28:43.298Z,101211.78
2022-09-12T13:31:20.094Z,101211.75
2022-09-12T13:33:57.437Z,101195.06
2022-09-12T13:37:24.849Z,101202.94
2022-09-12T13:40:07.524Z,101201.28
2022-09-12T13:42:41.405Z,101201.38
2022-09-12T13:45:18.695Z,101196.09
2022-09-12T13:47:58.871Z,101189.03
2022-09-12T13:50:30.013Z,101187.22
2022-09-12T13:53:02.771Z,101177.44
2022-09-12T13:55:35.377Z,101182.09
2022-09-12T13:58:06.028Z,101182.22
2022-09-12T14:00:37.470Z,101181.53
2022-09-12T14:03:44.233Z,101179.75
2022-09-12T14:06:16.789Z,101178.88
2022-09-12T14:08:47.029Z,101176.25
2022-09-12T14:11:27.337Z,101179.69
2022-09-12T14:13:58.260Z,101177.03
2022-09-12T14:16:29.224Z,101177.91
2022-09-12T14:18:59.919Z,101172.56
2022-09-12T14:21:36.317Z,101175.16
2022-09-12T14:24:08.605Z,101176.88
2022-09-12T14:26:41.195Z,101170.84
2022-09-12T14:29:13.616Z,101175.34
2022-09-12T14:31:46.009Z,101174.53
2022-09-12T14:34:20.133Z,101185.94
2022-09-12T14:36:52.018Z,101170.94
2022-09-12T14:39:29.776Z,101164.84
2022-09-12T14:42:09.478Z,101164.00
2022-09-12T14:44:38.530Z,101165.75
2022-09-12T14:47:22.352Z,101161.47
2022-09-12T14:49:52.323Z,101172.09
2022-09-12T14:52:28.387Z,101166.81
2022-09-12T14:54:59.000Z,101161.59
2022-09-12T14:57:36.516Z,101157.13
2022-09-12T15:00:20.980Z,101153.59
2022-09-12T15:02:52.010Z,101156.38
2022-09-12T15:05:24.157Z,101150.25
2022-09-12T15:07:56.234Z,101149.41
2022-09-12T15:10:27.706Z,101151.22
2022-09-12T15:13:21.623Z,101150.38
2022-09-12T15:15:53.101Z,101153.97
2022-09-12T15:18:25.090Z,101145.19
2022-09-12T15:20:56.774Z,101146.91
2022-09-12T15:23:40.223Z,101149.59
2022-09-12T15:26:09.508Z,101150.47
2022-09-12T15:28:38.071Z,101143.47
2022-09-12T15:31:12.868Z,101143.47
2022-09-12T15:33:43.137Z,101146.97
2022-09-12T15:36:17.693Z,101144.38
2022-09-12T15:38:47.029Z,101140.00
2022-09-12T15:41:18.700Z,101134.75
2022-09-12T15:43:48.073Z,101134.75
2022-09-12T15:46:19.110Z,101125.94
2022-09-12T15:48:49.185Z,101128.63
2022-09-12T15:51:19.724Z,101131.31
2022-09-12T15:53:49.346Z,101131.34
2022-09-12T15:56:18.931Z,101128.72
2022-09-12T15:58:58.204Z,101134.00
2022-09-12T16:01:29.905Z,101127.00
2022-09-12T16:04:00.343Z,101133.16
2022-09-12T16:06:33.581Z,101122.59
2022-09-12T16:09:05.274Z,101122.66
2022-09-12T16:11:34.069Z,101120.91
2022-09-12T16:14:03.758Z,101124.44
2022-09-12T16:16:32.759Z,101117.41
2022-09-12T16:19:02.831Z,101112.13
2022-09-12T16:21:31.932Z,101114.78
2022-09-12T16:24:00.500Z,101118.31
2022-09-12T16:26:29.209Z,101110.38
2022-09-12T16:28:58.901Z,101116.56
2022-09-12T16:31:29.058Z,101103.41
2022-09-12T16:33:58.081Z,101104.28
2022-09-12T16:36:28.354Z,101106.91
2022-09-12T16:38:56.849Z,101102.50
2022-09-12T16:41:26.500Z,101100.75
2022-09-12T16:43:55.441Z,101098.13
2022-09-12T16:46:27.981Z,101097.22
2022-09-12T16:48:58.434Z,101092.00
2022-09-12T16:51:32.005Z,101090.25
2022-09-12T16:54:00.739Z,101091.13
2022-09-12T16:56:29.417Z,101090.28
2022-09-12T16:58:58.048Z,101089.41
2022-09-12T17:01:28.030Z,101078.88
2022-09-12T17:03:58.461Z,101082.41
2022-09-12T17:06:29.231Z,101085.94
2022-09-12T17:09:01.718Z,101070.09
2022-09-12T17:11:32.485Z,101065.69
2022-09-12T17:14:05.442Z,101070.09
2022-09-12T17:16:35.219Z,101061.34
2022-09-12T17:19:04.252Z,101066.63
2022-09-12T17:21:35.222Z,101070.13
2022-09-12T17:24:05.634Z,101057.00
2022-09-12T17:26:34.307Z,101068.44
2022-09-12T17:29:03.273Z,101061.44
2022-09-12T17:31:32.395Z,101063.19
2022-09-12T17:34:02.176Z,101054.44
2022-09-12T17:36:31.551Z,101064.13
2022-09-12T17:39:03.584Z,101060.63
2022-09-12T17:41:33.098Z,101069.41
2022-09-12T17:44:02.681Z,101071.19
2022-09-12T17:46:34.947Z,101067.66
2022-09-12T17:49:05.802Z,101063.31
2022-09-12T17:51:34.716Z,101063.31
2022-09-12T17:54:06.912Z,101065.06
2022-09-12T17:56:39.186Z,101065.09
2022-09-12T17:59:09.469Z,101070.31
2022-09-12T18:01:57.716Z,101072.09
2022-09-12T18:04:28.970Z,101077.34
2022-09-12T18:07:00.358Z,101072.97
2022-09-12T18:09:30.798Z,101079.13
2022-09-12T18:11:59.680Z,101082.63
2022-09-12T18:14:29.566Z,101084.38
2022-09-12T18:16:58.652Z,101082.59
2022-09-12T18:19:27.828Z,101091.41
2022-09-12T18:21:56.589Z,101082.59
2022-09-12T18:24:26.608Z,101083.47
2022-09-12T18:26:57.703Z,101075.59
2022-09-12T18:29:28.023Z,101078.22
2022-09-12T18:31:57.234Z,101073.81
2022-09-12T18:34:25.752Z,101067.69
2022-09-12T18:36:55.085Z,101075.56
2022-09-12T18:39:27.480Z,101066.78
2022-09-12T18:41:58.306Z,101065.91
2022-09-12T18:44:26.941Z,101066.78
2022-09-12T18:46:55.424Z,101065.88
2022-09-12T18:49:24.558Z,101067.63
2022-09-12T18:51:53.117Z,101063.25
2022-09-12T18:54:21.828Z,101055.34
2022-09-12T18:56:50.384Z,101056.19
2022-09-12T18:59:20.400Z,101064.94
2022-09-12T19:01:50.409Z,101055.22
2022-09-12T19:04:19.337Z,101049.09
2022-09-12T19:06:50.459Z,101051.69
2022-09-12T19:09:21.263Z,101048.19
2022-09-12T19:11:50.321Z,101042.00
2022-09-12T19:14:23.173Z,101037.56
2022-09-12T19:16:52.230Z,101027.94
2022-09-12T19:19:21.261Z,101039.28
2022-09-12T19:21:49.841Z,101033.13
2022-09-12T19:24:18.645Z,101029.59
2022-09-12T19:26:47.211Z,101038.34
2022-09-12T19:29:17.927Z,101035.66
2022-09-12T19:31:47.945Z,101042.66
2022-09-12T19:34:16.592Z,101032.94
2022-09-12T19:36:46.649Z,101031.19
2022-09-12T19:39:17.490Z,101025.88
2022-09-12T19:41:46.655Z,101016.25
2022-09-12T19:44:15.544Z,101029.34
2022-09-12T19:46:44.663Z,101024.94
2022-09-12T19:49:15.103Z,101025.75
2022-09-12T19:51:44.045Z,101025.69
2022-09-12T19:54:13.890Z,101023.91
2022-09-12T19:56:42.708Z,101016.81
2022-09-12T19:59:11.767Z,101017.66
2022-09-12T20:01:40.432Z,101019.34
2022-09-12T20:04:09.397Z,101023.66
2022-09-12T20:06:39.391Z,101014.88
2022-09-12T20:09:08.062Z,101019.19
2022-09-12T20:11:36.609Z,101018.28
2022-09-12T20:14:05.090Z,101014.78
2022-09-12T20:16:33.783Z,101006.88
2022-09-12T20:19:06.136Z,101009.44
2022-09-12T20:21:36.118Z,101007.63
2022-09-12T20:24:07.894Z,101007.63
2022-09-12T20:26:36.914Z,101009.31
2022-09-12T20:29:06.198Z,101002.28
2022-09-12T20:31:35.923Z,101010.13
2022-09-12T20:34:05.312Z,101000.47
2022-09-12T20:36:34.143Z,101006.56
2022-09-12T20:39:05.026Z,101000.41
2022-09-12T20:41:36.618Z,100994.25
2022-09-12T20:44:05.312Z,100993.38
2022-09-12T20:46:34.251Z,100988.13
2022-09-12T20:49:03.130Z,100994.19
2022-09-12T20:51:32.083Z,100994.19
2022-09-12T20:54:03.601Z,100988.91
2022-09-12T20:56:35.425Z,100994.16
2022-09-12T20:59:04.480Z,100989.75
2022-09-12T21:01:33.900Z,100987.09
2022-09-12T21:04:03.084Z,100978.38
2022-09-12T21:06:32.528Z,100982.69
2022-09-12T21:09:01.151Z,100989.66
2022-09-12T21:11:30.228Z,100982.63
2022-09-12T21:14:00.333Z,100989.53
2022-09-12T21:16:29.100Z,100985.16
2022-09-12T21:18:59.475Z,100992.13
2022-09-12T21:21:28.705Z,100980.72
2022-09-12T21:23:59.809Z,100978.94
2022-09-12T21:26:28.693Z,100976.28
2022-09-12T21:28:57.708Z,100985.88
2022-09-12T21:31:28.073Z,100970.13
2022-09-12T21:33:56.730Z,100971.84
2022-09-12T21:36:26.067Z,100968.31
2022-09-12T21:38:54.582Z,100970.91
2022-09-12T21:41:23.252Z,100975.25
2022-09-12T21:43:51.844Z,100970.84
2022-09-12T21:46:20.398Z,100975.22
2022-09-12T21:48:50.366Z,100962.94
2022-09-12T21:51:18.869Z,100971.66
2022-09-12T21:53:47.463Z,100966.38
2022-09-12T21:56:16.080Z,100965.50
2022-09-12T21:58:44.592Z,100954.09
2022-09-12T22:01:13.604Z,100950.59
2022-09-12T22:03:44.869Z,100954.09
2022-09-12T22:06:17.027Z,100954.09
2022-09-12T22:08:48.319Z,100945.34
2022-09-12T22:11:19.064Z,100945.31
2022-09-12T22:13:47.712Z,100947.00
2022-09-12T22:16:17.762Z,100942.59
2022-09-12T22:18:47.126Z,100933.81
2022-09-12T22:21:22.018Z,100937.25
2022-09-12T22:24:07.952Z,100921.53
2022-09-12T22:26:42.037Z,100923.25
2022-09-12T22:29:11.176Z,100920.59
2022-09-12T22:31:40.058Z,100922.31
2022-09-12T22:34:09.000Z,100921.41
2022-09-12T22:36:39.320Z,100913.56
2022-09-12T22:39:08.744Z,100900.47
2022-09-12T22:41:37.601Z,100904.84
2022-09-12T22:44:06.606Z,100902.19
2022-09-12T22:46:35.694Z,100898.66
2022-09-12T22:49:04.807Z,100888.19
2022-09-12T22:51:33.967Z,100890.78
2022-09-12T22:54:05.684Z,100881.16
2022-09-12T22:56:34.565Z,100875.00
2022-09-12T22:59:03.074Z,100870.59
2022-09-12T23:01:32.143Z,100873.22
2022-09-12T23:04:01.165Z,100864.44
2022-09-12T23:06:29.878Z,100862.69
2022-09-12T23:08:58.391Z,100867.88
2022-09-12T23:11:28.353Z,100860.88
2022-09-12T23:13:57.011Z,100865.19
2022-09-12T23:16:28.416Z,100862.50
2022-09-12T23:18:57.168Z,100857.25
2022-09-12T23:21:25.798Z,100854.63
2022-09-12T23:23:56.333Z,100846.75
2022-09-12T23:26:28.361Z,100864.19
2022-09-12T23:28:59.283Z,100848.47
2022-09-12T23:31:31.037Z,100855.44
2022-09-12T23:34:01.909Z,100851.94
2022-09-12T23:36:31.228Z,100852.81
2022-09-12T23:38:59.838Z,100851.03
2022-09-12T23:41:30.023Z,100850.19
2022-09-12T23:43:58.919Z,100844.97
2022-09-12T23:46:27.715Z,100840.63
2022-09-12T23:48:56.245Z,100836.25
2022-09-12T23:51:24.715Z,100835.34
2022-09-12T23:53:53.213Z,100842.31
2022-09-12T23:56:23.028Z,100836.16
2022-09-12T23:58:53.067Z,100835.28
